Terminal Aerodrome Forecast
Issued by NWS

Home | Current Version | Previous Version | Text Only | Print | Product List | Glossary On
Versions: 1 2 3 4 5 6 7 8 9 10 11 12 13 14 15 16 17 18
145
FTUS41 KBGM 251736
TAFRME
TAF
KRME 251736Z 2518/2618 14014KT P6SM -SHRA SCT012 OVC022
      WS020/20035KT
     FM252100 12007KT P6SM BKN035
     FM260000 29007KT P6SM SCT250
     FM261400 28011KT P6SM FEW150 SCT250=

USA.gov is the U.S. government's official web portal to all federal, state and local government web resources and services.